Ferguson, North Carolina
Current Conditions -  °F | °C
As of 2:35 PM on Thursday 23 Oct 2014 (Local Time) from KTNB Reporting Station
Clear Clear  
Wind Chill: 55°   Ceiling: Unl
Heat Index: 55°   Visibility: 10mi
Dew Point: 33°   Wind: 12mph
Humidity: 44%   Direction: 300°WNW
Pressure: 30.06"   Gusts: 20mph
Location:  36.09°N, 81.37°W
Report Text: KTNB 231835Z AUTO 30010G17KT 280V340 10SM CLR 13/01 A3006 RMK AO2 T01290008
Loading
Personal Weather Stations






























Interactive Weather Map
Tropical Storm Tracking
New forecast layout! Learn more

10-Day Weather Forecast

Advertisements
Track Severe Weather on mobile